sensor_id;sensor_type;location;lat;lon;timestamp;P1;durP1;ratioP1;P2;durP2;ratioP2
14554;SDS011;7364;50.870;4.722;2023-04-01T00:00:00;5.00;;;1.77;;
14554;SDS011;7364;50.870;4.722;2023-04-01T00:02:28;5.27;;;1.53;;
14554;SDS011;7364;50.870;4.722;2023-04-01T00:04:55;3.30;;;1.00;;
14554;SDS011;7364;50.870;4.722;2023-04-01T00:07:22;4.07;;;1.20;;
14554;SDS011;7364;50.870;4.722;2023-04-01T00:09:49;6.37;;;1.67;;
14554;SDS011;7364;50.870;4.722;2023-04-01T00:12:18;12.43;;;2.23;;
14554;SDS011;7364;50.870;4.722;2023-04-01T00:14:46;2.83;;;1.20;;
14554;SDS011;7364;50.870;4.722;2023-04-01T00:17:13;4.63;;;1.73;;
14554;SDS011;7364;50.870;4.722;2023-04-01T00:19:41;4.23;;;1.00;;
14554;SDS011;7364;50.870;4.722;2023-04-01T00:22:08;6.30;;;1.57;;
14554;SDS011;7364;50.870;4.722;2023-04-01T00:24:36;3.50;;;1.37;;
14554;SDS011;7364;50.870;4.722;2023-04-01T00:27:04;1.97;;;1.10;;
14554;SDS011;7364;50.870;4.722;2023-04-01T00:29:34;3.57;;;1.03;;
14554;SDS011;7364;50.870;4.722;2023-04-01T00:32:01;4.57;;;1.90;;
14554;SDS011;7364;50.870;4.722;2023-04-01T00:34:28;8.33;;;1.60;;
14554;SDS011;7364;50.870;4.722;2023-04-01T00:36:56;5.53;;;1.63;;
14554;SDS011;7364;50.870;4.722;2023-04-01T00:39:23;4.97;;;1.00;;
14554;SDS011;7364;50.870;4.722;2023-04-01T00:41:50;6.07;;;1.63;;
14554;SDS011;7364;50.870;4.722;2023-04-01T00:44:19;3.33;;;1.37;;
14554;SDS011;7364;50.870;4.722;2023-04-01T00:46:48;5.07;;;1.30;;
14554;SDS011;7364;50.870;4.722;2023-04-01T00:49:18;3.60;;;1.27;;
14554;SDS011;7364;50.870;4.722;2023-04-01T00:51:50;2.00;;;0.90;;
14554;SDS011;7364;50.870;4.722;2023-04-01T00:54:21;2.97;;;1.40;;
14554;SDS011;7364;50.870;4.722;2023-04-01T00:56:51;3.63;;;1.50;;
14554;SDS011;7364;50.870;4.722;2023-04-01T00:59:22;4.10;;;1.20;;
14554;SDS011;7364;50.870;4.722;2023-04-01T01:01:52;2.93;;;1.20;;
14554;SDS011;7364;50.870;4.722;2023-04-01T01:04:23;2.17;;;0.87;;
14554;SDS011;7364;50.870;4.722;2023-04-01T01:06:56;8.33;;;1.40;;
14554;SDS011;7364;50.870;4.722;2023-04-01T01:09:37;2.00;;;1.07;;
14554;SDS011;7364;50.870;4.722;2023-04-01T01:12:11;2.83;;;1.20;;
14554;SDS011;7364;50.870;4.722;2023-04-01T01:14:47;1.93;;;0.93;;
14554;SDS011;7364;50.870;4.722;2023-04-01T01:17:26;1.70;;;0.80;;
14554;SDS011;7364;50.870;4.722;2023-04-01T01:20:15;4.10;;;1.00;;
14554;SDS011;7364;50.870;4.722;2023-04-01T01:23:16;1.83;;;0.80;;
14554;SDS011;7364;50.870;4.722;2023-04-01T01:26:05;1.50;;;0.90;;
14554;SDS011;7364;50.870;4.722;2023-04-01T01:28:58;1.47;;;0.90;;
14554;SDS011;7364;50.870;4.722;2023-04-01T01:31:38;1.10;;;0.60;;
14554;SDS011;7364;50.870;4.722;2023-04-01T01:34:15;7.17;;;1.20;;
14554;SDS011;7364;50.870;4.722;2023-04-01T01:36:50;1.40;;;0.73;;
14554;SDS011;7364;50.870;4.722;2023-04-01T01:39:21;1.10;;;0.80;;
14554;SDS011;7364;50.870;4.722;2023-04-01T01:41:54;1.67;;;0.93;;
14554;SDS011;7364;50.870;4.722;2023-04-01T01:44:24;4.17;;;1.20;;
14554;SDS011;7364;50.870;4.722;2023-04-01T01:46:54;1.57;;;1.03;;
14554;SDS011;7364;50.870;4.722;2023-04-01T01:49:23;3.90;;;1.03;;
14554;SDS011;7364;50.870;4.722;2023-04-01T01:51:52;2.30;;;0.90;;
14554;SDS011;7364;50.870;4.722;2023-04-01T01:54:19;0.90;;;0.70;;
14554;SDS011;7364;50.870;4.722;2023-04-01T01:56:47;1.13;;;0.80;;
14554;SDS011;7364;50.870;4.722;2023-04-01T01:59:20;1.10;;;0.87;;
14554;SDS011;7364;50.870;4.722;2023-04-01T02:01:50;3.00;;;1.07;;
14554;SDS011;7364;50.870;4.722;2023-04-01T02:04:22;2.57;;;1.13;;
14554;SDS011;7364;50.870;4.722;2023-04-01T02:06:51;1.90;;;1.03;;
14554;SDS011;7364;50.870;4.722;2023-04-01T02:09:25;3.10;;;1.37;;
14554;SDS011;7364;50.870;4.722;2023-04-01T02:11:55;1.13;;;0.90;;
14554;SDS011;7364;50.870;4.722;2023-04-01T02:14:26;2.50;;;1.30;;
14554;SDS011;7364;50.870;4.722;2023-04-01T02:16:59;1.97;;;1.40;;
14554;SDS011;7364;50.870;4.722;2023-04-01T02:19:34;3.17;;;1.40;;
14554;SDS011;7364;50.870;4.722;2023-04-01T02:22:08;2.57;;;1.50;;
14554;SDS011;7364;50.870;4.722;2023-04-01T02:24:41;5.53;;;1.87;;
14554;SDS011;7364;50.870;4.722;2023-04-01T02:27:10;2.47;;;1.53;;
14554;SDS011;7364;50.870;4.722;2023-04-01T02:29:39;8.00;;;2.47;;
14554;SDS011;7364;50.870;4.722;2023-04-01T02:32:06;4.93;;;2.53;;
14554;SDS011;7364;50.870;4.722;2023-04-01T02:34:35;7.57;;;3.10;;
14554;SDS011;7364;50.870;4.722;2023-04-01T02:37:03;7.20;;;3.50;;
14554;SDS011;7364;50.870;4.722;2023-04-01T02:39:32;5.80;;;3.53;;
14554;SDS011;7364;50.870;4.722;2023-04-01T02:42:00;7.40;;;3.93;;
14554;SDS011;7364;50.870;4.722;2023-04-01T02:44:28;10.10;;;4.07;;
14554;SDS011;7364;50.870;4.722;2023-04-01T02:46:55;7.80;;;3.90;;
14554;SDS011;7364;50.870;4.722;2023-04-01T02:49:26;6.93;;;2.77;;
14554;SDS011;7364;50.870;4.722;2023-04-01T02:51:53;7.03;;;2.53;;
14554;SDS011;7364;50.870;4.722;2023-04-01T02:54:20;4.50;;;3.17;;
14554;SDS011;7364;50.870;4.722;2023-04-01T02:56:49;8.73;;;2.70;;
14554;SDS011;7364;50.870;4.722;2023-04-01T02:59:16;5.97;;;2.50;;
14554;SDS011;7364;50.870;4.722;2023-04-01T03:01:44;4.97;;;3.20;;
14554;SDS011;7364;50.870;4.722;2023-04-01T03:04:11;8.27;;;3.53;;
14554;SDS011;7364;50.870;4.722;2023-04-01T03:06:38;7.63;;;3.07;;
14554;SDS011;7364;50.870;4.722;2023-04-01T03:09:05;8.67;;;3.30;;
14554;SDS011;7364;50.870;4.722;2023-04-01T03:11:33;8.13;;;2.97;;
14554;SDS011;7364;50.870;4.722;2023-04-01T03:14:02;5.47;;;2.60;;
14554;SDS011;7364;50.870;4.722;2023-04-01T03:16:29;5.17;;;3.03;;
14554;SDS011;7364;50.870;4.722;2023-04-01T03:18:56;3.83;;;2.80;;
14554;SDS011;7364;50.870;4.722;2023-04-01T03:21:24;8.10;;;2.60;;
14554;SDS011;7364;50.870;4.722;2023-04-01T03:23:52;7.23;;;3.60;;
14554;SDS011;7364;50.870;4.722;2023-04-01T03:26:19;6.43;;;2.73;;
14554;SDS011;7364;50.870;4.722;2023-04-01T03:28:47;6.27;;;3.30;;
14554;SDS011;7364;50.870;4.722;2023-04-01T03:31:15;9.57;;;3.83;;
14554;SDS011;7364;50.870;4.722;2023-04-01T03:33:43;10.10;;;3.43;;
14554;SDS011;7364;50.870;4.722;2023-04-01T03:36:10;6.33;;;3.30;;
14554;SDS011;7364;50.870;4.722;2023-04-01T03:38:38;9.67;;;3.53;;
14554;SDS011;7364;50.870;4.722;2023-04-01T03:41:06;10.70;;;4.50;;
14554;SDS011;7364;50.870;4.722;2023-04-01T03:43:33;5.03;;;3.50;;
14554;SDS011;7364;50.870;4.722;2023-04-01T03:46:01;8.53;;;3.30;;
14554;SDS011;7364;50.870;4.722;2023-04-01T03:48:29;10.90;;;4.17;;
14554;SDS011;7364;50.870;4.722;2023-04-01T03:50:57;9.80;;;5.00;;
14554;SDS011;7364;50.870;4.722;2023-04-01T03:53:24;6.80;;;3.80;;
14554;SDS011;7364;50.870;4.722;2023-04-01T03:55:52;12.27;;;5.20;;
14554;SDS011;7364;50.870;4.722;2023-04-01T03:58:20;6.87;;;4.10;;
14554;SDS011;7364;50.870;4.722;2023-04-01T04:00:48;9.60;;;4.63;;
14554;SDS011;7364;50.870;4.722;2023-04-01T04:03:15;10.30;;;4.87;;
14554;SDS011;7364;50.870;4.722;2023-04-01T04:05:47;8.63;;;5.13;;
14554;SDS011;7364;50.870;4.722;2023-04-01T04:08:15;13.87;;;6.27;;
14554;SDS011;7364;50.870;4.722;2023-04-01T04:10:43;12.80;;;6.93;;
14554;SDS011;7364;50.870;4.722;2023-04-01T04:13:11;10.07;;;5.93;;
14554;SDS011;7364;50.870;4.722;2023-04-01T04:15:38;11.60;;;6.57;;
14554;SDS011;7364;50.870;4.722;2023-04-01T04:18:06;8.30;;;5.53;;
14554;SDS011;7364;50.870;4.722;2023-04-01T04:20:33;13.73;;;6.80;;
14554;SDS011;7364;50.870;4.722;2023-04-01T04:23:02;13.27;;;6.73;;
14554;SDS011;7364;50.870;4.722;2023-04-01T04:25:29;12.83;;;6.63;;
14554;SDS011;7364;50.870;4.722;2023-04-01T04:27:56;12.13;;;7.50;;
14554;SDS011;7364;50.870;4.722;2023-04-01T04:30:23;10.60;;;7.00;;
14554;SDS011;7364;50.870;4.722;2023-04-01T04:32:51;11.30;;;7.27;;
14554;SDS011;7364;50.870;4.722;2023-04-01T04:35:18;10.50;;;6.27;;
14554;SDS011;7364;50.870;4.722;2023-04-01T04:37:45;11.40;;;6.20;;
14554;SDS011;7364;50.870;4.722;2023-04-01T04:40:14;10.73;;;6.63;;
14554;SDS011;7364;50.870;4.722;2023-04-01T04:42:41;10.90;;;6.87;;
14554;SDS011;7364;50.870;4.722;2023-04-01T04:45:09;9.83;;;6.67;;
14554;SDS011;7364;50.870;4.722;2023-04-01T04:47:38;11.63;;;6.00;;
14554;SDS011;7364;50.870;4.722;2023-04-01T04:50:06;16.03;;;5.80;;
14554;SDS011;7364;50.870;4.722;2023-04-01T04:52:34;9.57;;;5.37;;
14554;SDS011;7364;50.870;4.722;2023-04-01T04:55:04;9.27;;;5.10;;
14554;SDS011;7364;50.870;4.722;2023-04-01T04:57:34;7.57;;;5.07;;
14554;SDS011;7364;50.870;4.722;2023-04-01T05:00:01;8.93;;;5.50;;
14554;SDS011;7364;50.870;4.722;2023-04-01T05:02:30;11.33;;;4.70;;
14554;SDS011;7364;50.870;4.722;2023-04-01T05:04:57;11.97;;;4.90;;
14554;SDS011;7364;50.870;4.722;2023-04-01T05:07:24;7.87;;;4.53;;
14554;SDS011;7364;50.870;4.722;2023-04-01T05:09:51;9.67;;;3.63;;
14554;SDS011;7364;50.870;4.722;2023-04-01T05:12:19;8.57;;;4.23;;
14554;SDS011;7364;50.870;4.722;2023-04-01T05:14:48;7.27;;;4.03;;
14554;SDS011;7364;50.870;4.722;2023-04-01T05:17:15;6.27;;;4.23;;
14554;SDS011;7364;50.870;4.722;2023-04-01T05:19:42;4.33;;;2.73;;
14554;SDS011;7364;50.870;4.722;2023-04-01T05:22:09;7.23;;;3.40;;
14554;SDS011;7364;50.870;4.722;2023-04-01T05:24:37;6.57;;;3.80;;
14554;SDS011;7364;50.870;4.722;2023-04-01T05:27:04;4.23;;;3.00;;
14554;SDS011;7364;50.870;4.722;2023-04-01T05:29:31;5.33;;;3.03;;
14554;SDS011;7364;50.870;4.722;2023-04-01T05:32:01;3.70;;;2.90;;
14554;SDS011;7364;50.870;4.722;2023-04-01T05:34:28;4.27;;;3.17;;
14554;SDS011;7364;50.870;4.722;2023-04-01T05:36:56;4.93;;;3.43;;
14554;SDS011;7364;50.870;4.722;2023-04-01T05:39:23;3.63;;;2.50;;
14554;SDS011;7364;50.870;4.722;2023-04-01T05:41:51;4.93;;;2.50;;
14554;SDS011;7364;50.870;4.722;2023-04-01T05:44:18;3.63;;;2.23;;
14554;SDS011;7364;50.870;4.722;2023-04-01T05:46:50;5.20;;;2.17;;
14554;SDS011;7364;50.870;4.722;2023-04-01T05:49:19;6.03;;;2.40;;
14554;SDS011;7364;50.870;4.722;2023-04-01T05:51:46;4.10;;;2.60;;
14554;SDS011;7364;50.870;4.722;2023-04-01T05:54:16;4.43;;;2.87;;
14554;SDS011;7364;50.870;4.722;2023-04-01T05:56:43;5.73;;;3.03;;
14554;SDS011;7364;50.870;4.722;2023-04-01T05:59:10;4.13;;;2.87;;
14554;SDS011;7364;50.870;4.722;2023-04-01T06:01:40;4.00;;;2.73;;
14554;SDS011;7364;50.870;4.722;2023-04-01T06:04:09;6.13;;;3.17;;
14554;SDS011;7364;50.870;4.722;2023-04-01T06:06:41;4.00;;;3.03;;
14554;SDS011;7364;50.870;4.722;2023-04-01T06:09:12;6.90;;;3.50;;
14554;SDS011;7364;50.870;4.722;2023-04-01T06:11:44;6.40;;;3.93;;
14554;SDS011;7364;50.870;4.722;2023-04-01T06:14:26;5.37;;;3.90;;
14554;SDS011;7364;50.870;4.722;2023-04-01T06:17:05;5.87;;;4.23;;
14554;SDS011;7364;50.870;4.722;2023-04-01T06:19:51;7.33;;;4.77;;
14554;SDS011;7364;50.870;4.722;2023-04-01T06:25:38;9.80;;;5.03;;
14554;SDS011;7364;50.870;4.722;2023-04-01T06:31:26;8.30;;;5.53;;
14554;SDS011;7364;50.870;4.722;2023-04-01T06:34:21;8.10;;;5.27;;
14554;SDS011;7364;50.870;4.722;2023-04-01T06:37:11;10.17;;;4.77;;
14554;SDS011;7364;50.870;4.722;2023-04-01T06:39:56;11.03;;;6.33;;
14554;SDS011;7364;50.870;4.722;2023-04-01T06:42:46;7.70;;;5.07;;
14554;SDS011;7364;50.870;4.722;2023-04-01T06:45:32;14.53;;;5.90;;
14554;SDS011;7364;50.870;4.722;2023-04-01T06:48:27;9.10;;;4.63;;
14554;SDS011;7364;50.870;4.722;2023-04-01T06:51:07;11.80;;;7.07;;
14554;SDS011;7364;50.870;4.722;2023-04-01T06:53:49;8.33;;;5.10;;
14554;SDS011;7364;50.870;4.722;2023-04-01T06:56:24;9.83;;;6.43;;
14554;SDS011;7364;50.870;4.722;2023-04-01T06:58:56;10.67;;;7.33;;
14554;SDS011;7364;50.870;4.722;2023-04-01T07:01:28;7.97;;;5.73;;
14554;SDS011;7364;50.870;4.722;2023-04-01T07:04:02;8.23;;;5.97;;
14554;SDS011;7364;50.870;4.722;2023-04-01T07:06:35;11.33;;;6.60;;
14554;SDS011;7364;50.870;4.722;2023-04-01T07:09:05;8.70;;;5.53;;
14554;SDS011;7364;50.870;4.722;2023-04-01T07:11:38;7.07;;;5.20;;
14554;SDS011;7364;50.870;4.722;2023-04-01T07:14:10;8.17;;;5.50;;
14554;SDS011;7364;50.870;4.722;2023-04-01T07:16:44;9.10;;;6.00;;
14554;SDS011;7364;50.870;4.722;2023-04-01T07:19:16;7.13;;;4.90;;
14554;SDS011;7364;50.870;4.722;2023-04-01T07:21:49;6.87;;;4.53;;
14554;SDS011;7364;50.870;4.722;2023-04-01T07:24:21;8.43;;;5.60;;
14554;SDS011;7364;50.870;4.722;2023-04-01T07:26:54;6.10;;;4.53;;
14554;SDS011;7364;50.870;4.722;2023-04-01T07:29:23;9.00;;;4.00;;
14554;SDS011;7364;50.870;4.722;2023-04-01T07:32:06;9.00;;;4.67;;
14554;SDS011;7364;50.870;4.722;2023-04-01T07:34:46;3.93;;;2.17;;
14554;SDS011;7364;50.870;4.722;2023-04-01T07:37:22;5.73;;;2.13;;
14554;SDS011;7364;50.870;4.722;2023-04-01T07:40:00;2.27;;;1.73;;
14554;SDS011;7364;50.870;4.722;2023-04-01T07:42:42;2.27;;;1.33;;
14554;SDS011;7364;50.870;4.722;2023-04-01T07:45:23;1.40;;;1.10;;
14554;SDS011;7364;50.870;4.722;2023-04-01T07:48:08;3.27;;;1.87;;
14554;SDS011;7364;50.870;4.722;2023-04-01T07:50:46;3.33;;;1.77;;
14554;SDS011;7364;50.870;4.722;2023-04-01T07:53:23;3.40;;;2.13;;
14554;SDS011;7364;50.870;4.722;2023-04-01T07:56:01;7.13;;;3.33;;
14554;SDS011;7364;50.870;4.722;2023-04-01T07:58:38;5.33;;;3.27;;
14554;SDS011;7364;50.870;4.722;2023-04-01T08:01:16;3.40;;;2.77;;
14554;SDS011;7364;50.870;4.722;2023-04-01T08:03:55;3.57;;;2.33;;
14554;SDS011;7364;50.870;4.722;2023-04-01T08:06:36;2.40;;;1.10;;
14554;SDS011;7364;50.870;4.722;2023-04-01T08:09:09;2.50;;;1.20;;
14554;SDS011;7364;50.870;4.722;2023-04-01T08:11:51;1.63;;;1.00;;
14554;SDS011;7364;50.870;4.722;2023-04-01T08:14:33;1.63;;;0.97;;
14554;SDS011;7364;50.870;4.722;2023-04-01T08:17:08;1.07;;;0.93;;
14554;SDS011;7364;50.870;4.722;2023-04-01T08:19:46;0.93;;;0.67;;
14554;SDS011;7364;50.870;4.722;2023-04-01T08:22:23;0.60;;;0.57;;
14554;SDS011;7364;50.870;4.722;2023-04-01T08:24:57;0.83;;;0.60;;
14554;SDS011;7364;50.870;4.722;2023-04-01T08:27:28;0.40;;;0.40;;
14554;SDS011;7364;50.870;4.722;2023-04-01T08:30:03;0.70;;;0.70;;
14554;SDS011;7364;50.870;4.722;2023-04-01T08:32:41;1.57;;;0.80;;
14554;SDS011;7364;50.870;4.722;2023-04-01T08:35:14;1.60;;;0.80;;
14554;SDS011;7364;50.870;4.722;2023-04-01T08:37:46;2.07;;;0.90;;
14554;SDS011;7364;50.870;4.722;2023-04-01T08:43:29;1.77;;;1.07;;
14554;SDS011;7364;50.870;4.722;2023-04-01T08:46:44;2.07;;;1.30;;
14554;SDS011;7364;50.870;4.722;2023-04-01T08:49:32;1.87;;;1.30;;
14554;SDS011;7364;50.870;4.722;2023-04-01T08:52:20;1.70;;;1.20;;
14554;SDS011;7364;50.870;4.722;2023-04-01T08:57:53;2.77;;;1.17;;
14554;SDS011;7364;50.870;4.722;2023-04-01T09:00:34;2.03;;;1.20;;
14554;SDS011;7364;50.870;4.722;2023-04-01T09:06:13;2.23;;;1.40;;
14554;SDS011;7364;50.870;4.722;2023-04-01T09:09:13;4.30;;;1.10;;
14554;SDS011;7364;50.870;4.722;2023-04-01T09:18:13;2.03;;;1.13;;
14554;SDS011;7364;50.870;4.722;2023-04-01T09:20:59;0.90;;;0.80;;
14554;SDS011;7364;50.870;4.722;2023-04-01T09:23:51;1.73;;;1.20;;
14554;SDS011;7364;50.870;4.722;2023-04-01T09:26:52;5.53;;;1.30;;
14554;SDS011;7364;50.870;4.722;2023-04-01T09:29:40;2.00;;;1.13;;
14554;SDS011;7364;50.870;4.722;2023-04-01T09:32:42;1.33;;;0.93;;
14554;SDS011;7364;50.870;4.722;2023-04-01T09:35:36;1.10;;;0.80;;
14554;SDS011;7364;50.870;4.722;2023-04-01T09:38:19;1.10;;;0.93;;
14554;SDS011;7364;50.870;4.722;2023-04-01T09:40:54;0.83;;;0.67;;
14554;SDS011;7364;50.870;4.722;2023-04-01T09:43:26;2.50;;;1.33;;
14554;SDS011;7364;50.870;4.722;2023-04-01T09:51:44;2.33;;;1.40;;
14554;SDS011;7364;50.870;4.722;2023-04-01T09:54:26;1.70;;;1.13;;
14554;SDS011;7364;50.870;4.722;2023-04-01T09:57:27;1.73;;;1.10;;
14554;SDS011;7364;50.870;4.722;2023-04-01T10:00:36;2.20;;;1.33;;
14554;SDS011;7364;50.870;4.722;2023-04-01T10:03:32;3.17;;;1.43;;
14554;SDS011;7364;50.870;4.722;2023-04-01T10:16:14;3.13;;;1.87;;
14554;SDS011;7364;50.870;4.722;2023-04-01T10:19:18;3.30;;;2.27;;
14554;SDS011;7364;50.870;4.722;2023-04-01T10:22:12;4.23;;;2.67;;
14554;SDS011;7364;50.870;4.722;2023-04-01T10:28:19;5.67;;;2.50;;
14554;SDS011;7364;50.870;4.722;2023-04-01T10:31:21;5.03;;;3.23;;
14554;SDS011;7364;50.870;4.722;2023-04-01T10:37:31;4.47;;;2.90;;
14554;SDS011;7364;50.870;4.722;2023-04-01T10:40:28;3.30;;;2.90;;
14554;SDS011;7364;50.870;4.722;2023-04-01T10:43:25;4.03;;;2.60;;
14554;SDS011;7364;50.870;4.722;2023-04-01T10:46:21;4.03;;;2.07;;
14554;SDS011;7364;50.870;4.722;2023-04-01T10:49:21;5.30;;;2.50;;
14554;SDS011;7364;50.870;4.722;2023-04-01T10:52:22;3.47;;;2.03;;
14554;SDS011;7364;50.870;4.722;2023-04-01T10:55:19;3.17;;;2.40;;
14554;SDS011;7364;50.870;4.722;2023-04-01T10:58:32;5.20;;;2.97;;
14554;SDS011;7364;50.870;4.722;2023-04-01T11:01:25;4.07;;;2.37;;
14554;SDS011;7364;50.870;4.722;2023-04-01T11:07:27;2.80;;;1.67;;
14554;SDS011;7364;50.870;4.722;2023-04-01T11:10:29;3.67;;;1.90;;
14554;SDS011;7364;50.870;4.722;2023-04-01T11:13:33;4.03;;;2.50;;
14554;SDS011;7364;50.870;4.722;2023-04-01T11:16:43;4.50;;;2.10;;
14554;SDS011;7364;50.870;4.722;2023-04-01T11:22:46;2.80;;;1.80;;
14554;SDS011;7364;50.870;4.722;2023-04-01T11:25:44;2.93;;;1.90;;
14554;SDS011;7364;50.870;4.722;2023-04-01T11:28:27;3.83;;;1.73;;
14554;SDS011;7364;50.870;4.722;2023-04-01T11:31:12;3.73;;;1.27;;
14554;SDS011;7364;50.870;4.722;2023-04-01T11:34:01;4.77;;;1.10;;
14554;SDS011;7364;50.870;4.722;2023-04-01T11:36:37;0.97;;;0.87;;
14554;SDS011;7364;50.870;4.722;2023-04-01T11:39:19;1.23;;;1.03;;
14554;SDS011;7364;50.870;4.722;2023-04-01T11:41:53;2.93;;;1.17;;
14554;SDS011;7364;50.870;4.722;2023-04-01T11:44:34;1.40;;;0.63;;
14554;SDS011;7364;50.870;4.722;2023-04-01T11:47:13;1.07;;;0.70;;
14554;SDS011;7364;50.870;4.722;2023-04-01T11:49:54;2.17;;;1.00;;
14554;SDS011;7364;50.870;4.722;2023-04-01T11:52:39;1.20;;;0.90;;
14554;SDS011;7364;50.870;4.722;2023-04-01T11:55:27;0.90;;;0.60;;
14554;SDS011;7364;50.870;4.722;2023-04-01T11:58:05;1.23;;;0.70;;
14554;SDS011;7364;50.870;4.722;2023-04-01T12:01:09;0.80;;;0.70;;
14554;SDS011;7364;50.870;4.722;2023-04-01T12:06:54;0.80;;;0.80;;
14554;SDS011;7364;50.870;4.722;2023-04-01T12:09:30;1.63;;;1.00;;
14554;SDS011;7364;50.870;4.722;2023-04-01T12:12:12;1.60;;;1.00;;
14554;SDS011;7364;50.870;4.722;2023-04-01T12:14:47;1.53;;;0.93;;
14554;SDS011;7364;50.870;4.722;2023-04-01T12:17:28;1.50;;;1.20;;
14554;SDS011;7364;50.870;4.722;2023-04-01T12:20:12;1.73;;;1.20;;
14554;SDS011;7364;50.870;4.722;2023-04-01T12:22:53;1.57;;;1.17;;
14554;SDS011;7364;50.870;4.722;2023-04-01T12:28:39;4.93;;;0.93;;
14554;SDS011;7364;50.870;4.722;2023-04-01T12:31:18;1.20;;;1.00;;
14554;SDS011;7364;50.870;4.722;2023-04-01T12:34:02;2.33;;;1.00;;
14554;SDS011;7364;50.870;4.722;2023-04-01T12:36:51;2.33;;;1.43;;
14554;SDS011;7364;50.870;4.722;2023-04-01T12:39:31;1.30;;;1.10;;
14554;SDS011;7364;50.870;4.722;2023-04-01T12:42:13;2.40;;;1.50;;
14554;SDS011;7364;50.870;4.722;2023-04-01T12:44:56;2.70;;;1.47;;
14554;SDS011;7364;50.870;4.722;2023-04-01T12:47:53;2.10;;;1.50;;
14554;SDS011;7364;50.870;4.722;2023-04-01T12:50:55;1.70;;;1.20;;
14554;SDS011;7364;50.870;4.722;2023-04-01T12:57:13;2.20;;;1.30;;
14554;SDS011;7364;50.870;4.722;2023-04-01T12:59:58;2.47;;;1.20;;
14554;SDS011;7364;50.870;4.722;2023-04-01T13:02:40;3.17;;;1.57;;
14554;SDS011;7364;50.870;4.722;2023-04-01T13:05:38;2.50;;;1.17;;
14554;SDS011;7364;50.870;4.722;2023-04-01T13:08:45;1.27;;;1.03;;
14554;SDS011;7364;50.870;4.722;2023-04-01T13:11:24;2.57;;;0.70;;
14554;SDS011;7364;50.870;4.722;2023-04-01T13:17:28;4.90;;;1.17;;
14554;SDS011;7364;50.870;4.722;2023-04-01T13:20:11;2.30;;;1.00;;
14554;SDS011;7364;50.870;4.722;2023-04-01T13:22:54;2.73;;;1.20;;
14554;SDS011;7364;50.870;4.722;2023-04-01T13:25:31;2.70;;;1.00;;
14554;SDS011;7364;50.870;4.722;2023-04-01T13:28:06;1.10;;;0.90;;
14554;SDS011;7364;50.870;4.722;2023-04-01T13:30:44;1.57;;;1.17;;
14554;SDS011;7364;50.870;4.722;2023-04-01T13:33:25;3.67;;;2.20;;
14554;SDS011;7364;50.870;4.722;2023-04-01T13:36:01;1.47;;;1.10;;
14554;SDS011;7364;50.870;4.722;2023-04-01T13:38:56;1.83;;;1.30;;
14554;SDS011;7364;50.870;4.722;2023-04-01T13:41:50;2.53;;;1.57;;
14554;SDS011;7364;50.870;4.722;2023-04-01T13:44:37;2.00;;;1.27;;
14554;SDS011;7364;50.870;4.722;2023-04-01T13:47:17;2.07;;;1.20;;
14554;SDS011;7364;50.870;4.722;2023-04-01T13:50:17;1.27;;;1.13;;
14554;SDS011;7364;50.870;4.722;2023-04-01T13:53:28;2.30;;;1.33;;
14554;SDS011;7364;50.870;4.722;2023-04-01T13:56:22;1.17;;;0.97;;
14554;SDS011;7364;50.870;4.722;2023-04-01T13:59:14;1.17;;;0.90;;
14554;SDS011;7364;50.870;4.722;2023-04-01T14:02:12;1.30;;;0.80;;
14554;SDS011;7364;50.870;4.722;2023-04-01T14:05:03;0.90;;;0.80;;
14554;SDS011;7364;50.870;4.722;2023-04-01T14:07:47;0.93;;;0.73;;
14554;SDS011;7364;50.870;4.722;2023-04-01T14:10:25;0.77;;;0.60;;
14554;SDS011;7364;50.870;4.722;2023-04-01T14:13:03;1.37;;;0.83;;
14554;SDS011;7364;50.870;4.722;2023-04-01T14:15:45;1.13;;;0.90;;
14554;SDS011;7364;50.870;4.722;2023-04-01T14:18:35;1.13;;;0.87;;
14554;SDS011;7364;50.870;4.722;2023-04-01T14:21:17;2.70;;;1.10;;
14554;SDS011;7364;50.870;4.722;2023-04-01T14:23:57;1.20;;;0.80;;
14554;SDS011;7364;50.870;4.722;2023-04-01T14:29:47;1.13;;;1.03;;
14554;SDS011;7364;50.870;4.722;2023-04-01T14:32:31;2.90;;;1.80;;
14554;SDS011;7364;50.870;4.722;2023-04-01T14:35:20;3.30;;;2.40;;
14554;SDS011;7364;50.870;4.722;2023-04-01T14:38:04;2.73;;;2.07;;
14554;SDS011;7364;50.870;4.722;2023-04-01T14:40:53;3.63;;;2.40;;
14554;SDS011;7364;50.870;4.722;2023-04-01T14:46:23;3.93;;;2.53;;
14554;SDS011;7364;50.870;4.722;2023-04-01T14:49:16;3.40;;;2.30;;
14554;SDS011;7364;50.870;4.722;2023-04-01T14:51:48;4.00;;;2.70;;
14554;SDS011;7364;50.870;4.722;2023-04-01T14:54:19;5.43;;;2.77;;
14554;SDS011;7364;50.870;4.722;2023-04-01T14:57:03;4.63;;;2.27;;
14554;SDS011;7364;50.870;4.722;2023-04-01T14:59:39;2.93;;;2.33;;
14554;SDS011;7364;50.870;4.722;2023-04-01T15:02:16;2.93;;;2.33;;
14554;SDS011;7364;50.870;4.722;2023-04-01T15:05:08;6.70;;;2.50;;
14554;SDS011;7364;50.870;4.722;2023-04-01T15:07:55;4.93;;;2.67;;
14554;SDS011;7364;50.870;4.722;2023-04-01T15:10:53;3.37;;;2.17;;
14554;SDS011;7364;50.870;4.722;2023-04-01T15:13:38;2.07;;;1.67;;
14554;SDS011;7364;50.870;4.722;2023-04-01T15:16:21;2.17;;;1.60;;
14554;SDS011;7364;50.870;4.722;2023-04-01T15:18:56;2.27;;;1.40;;
14554;SDS011;7364;50.870;4.722;2023-04-01T15:21:43;1.90;;;1.20;;
14554;SDS011;7364;50.870;4.722;2023-04-01T15:24:21;2.00;;;1.47;;
14554;SDS011;7364;50.870;4.722;2023-04-01T15:26:54;1.60;;;1.10;;
14554;SDS011;7364;50.870;4.722;2023-04-01T15:32:37;2.33;;;1.23;;
14554;SDS011;7364;50.870;4.722;2023-04-01T15:35:15;2.73;;;1.40;;
14554;SDS011;7364;50.870;4.722;2023-04-01T15:37:53;3.83;;;1.40;;
14554;SDS011;7364;50.870;4.722;2023-04-01T15:40:24;3.57;;;1.50;;
14554;SDS011;7364;50.870;4.722;2023-04-01T15:43:01;1.83;;;1.23;;
14554;SDS011;7364;50.870;4.722;2023-04-01T15:45:36;2.20;;;1.17;;
14554;SDS011;7364;50.870;4.722;2023-04-01T15:51:08;1.83;;;1.30;;
14554;SDS011;7364;50.870;4.722;2023-04-01T15:53:52;1.27;;;1.17;;
14554;SDS011;7364;50.870;4.722;2023-04-01T15:56:44;1.70;;;1.00;;
14554;SDS011;7364;50.870;4.722;2023-04-01T15:59:22;3.80;;;1.87;;
14554;SDS011;7364;50.870;4.722;2023-04-01T16:02:13;1.47;;;1.27;;
14554;SDS011;7364;50.870;4.722;2023-04-01T16:04:50;2.80;;;1.20;;
14554;SDS011;7364;50.870;4.722;2023-04-01T16:07:39;2.07;;;1.50;;
14554;SDS011;7364;50.870;4.722;2023-04-01T16:10:25;5.93;;;1.60;;
14554;SDS011;7364;50.870;4.722;2023-04-01T16:13:12;3.33;;;1.63;;
14554;SDS011;7364;50.870;4.722;2023-04-01T16:15:53;2.10;;;1.60;;
14554;SDS011;7364;50.870;4.722;2023-04-01T16:18:38;1.87;;;1.20;;
14554;SDS011;7364;50.870;4.722;2023-04-01T16:21:24;3.47;;;1.80;;
14554;SDS011;7364;50.870;4.722;2023-04-01T16:24:03;1.70;;;1.20;;
14554;SDS011;7364;50.870;4.722;2023-04-01T16:26:44;2.37;;;1.30;;
14554;SDS011;7364;50.870;4.722;2023-04-01T16:29:25;1.53;;;1.13;;
14554;SDS011;7364;50.870;4.722;2023-04-01T16:32:05;1.43;;;1.23;;
14554;SDS011;7364;50.870;4.722;2023-04-01T16:34:44;1.47;;;1.00;;
14554;SDS011;7364;50.870;4.722;2023-04-01T16:37:21;3.47;;;1.43;;
14554;SDS011;7364;50.870;4.722;2023-04-01T16:40:02;1.30;;;0.97;;
14554;SDS011;7364;50.870;4.722;2023-04-01T16:42:47;1.83;;;1.03;;
14554;SDS011;7364;50.870;4.722;2023-04-01T16:45:21;0.90;;;0.70;;
14554;SDS011;7364;50.870;4.722;2023-04-01T16:47:58;3.17;;;1.30;;
14554;SDS011;7364;50.870;4.722;2023-04-01T16:50:39;1.80;;;1.30;;
14554;SDS011;7364;50.870;4.722;2023-04-01T16:53:17;3.53;;;1.90;;
14554;SDS011;7364;50.870;4.722;2023-04-01T16:55:50;1.90;;;1.60;;
14554;SDS011;7364;50.870;4.722;2023-04-01T16:58:23;2.63;;;1.77;;
14554;SDS011;7364;50.870;4.722;2023-04-01T17:00:55;3.63;;;2.00;;
14554;SDS011;7364;50.870;4.722;2023-04-01T17:03:29;6.20;;;1.70;;
14554;SDS011;7364;50.870;4.722;2023-04-01T17:06:03;2.50;;;2.00;;
14554;SDS011;7364;50.870;4.722;2023-04-01T17:08:43;3.10;;;2.00;;
14554;SDS011;7364;50.870;4.722;2023-04-01T17:11:24;2.50;;;1.80;;
14554;SDS011;7364;50.870;4.722;2023-04-01T17:13:57;1.73;;;1.50;;
14554;SDS011;7364;50.870;4.722;2023-04-01T17:19:40;3.97;;;1.90;;
14554;SDS011;7364;50.870;4.722;2023-04-01T17:22:19;5.03;;;2.23;;